sensor_id;sensor_type;location;lat;lon;timestamp;pressure;altitude;pressure_sealevel;temperature;humidity
13387;BME280;6763;48.524;9.044;2023-11-19T16:08:56;97534.06;;;14.24;67.67
13387;BME280;6763;48.524;9.044;2023-11-19T16:11:21;97523.47;;;15.79;60.75
13387;BME280;6763;48.524;9.044;2023-11-19T16:13:47;97537.41;;;16.74;57.10
13387;BME280;6763;48.524;9.044;2023-11-19T16:16:12;97527.28;;;17.21;54.76
13387;BME280;6763;48.524;9.044;2023-11-19T16:18:38;97530.38;;;17.46;53.73
13387;BME280;6763;48.524;9.044;2023-11-19T16:21:03;97525.34;;;17.60;52.80
13387;BME280;6763;48.524;9.044;2023-11-19T16:23:29;97541.97;;;17.76;52.36
13387;BME280;6763;48.524;9.044;2023-11-19T16:25:54;97532.50;;;17.74;52.22
13387;BME280;6763;48.524;9.044;2023-11-19T16:28:19;97515.31;;;17.68;51.79
13387;BME280;6763;48.524;9.044;2023-11-19T16:30:45;97534.00;;;17.78;51.84
13387;BME280;6763;48.524;9.044;2023-11-19T16:33:11;97540.34;;;17.74;51.76
13387;BME280;6763;48.524;9.044;2023-11-19T16:35:36;97549.81;;;17.76;51.60
13387;BME280;6763;48.524;9.044;2023-11-19T16:38:02;97540.56;;;17.69;51.55
13387;BME280;6763;48.524;9.044;2023-11-19T16:40:27;97549.75;;;17.61;51.60
13387;BME280;6763;48.524;9.044;2023-11-19T16:42:53;97552.66;;;17.55;51.41
13387;BME280;6763;48.524;9.044;2023-11-19T16:45:19;97562.47;;;17.50;51.86
13387;BME280;6763;48.524;9.044;2023-11-19T16:47:45;97558.25;;;17.47;51.94
13387;BME280;6763;48.524;9.044;2023-11-19T16:50:11;97566.75;;;17.33;51.86
13387;BME280;6763;48.524;9.044;2023-11-19T16:52:42;97562.19;;;17.20;52.05
13387;BME280;6763;48.524;9.044;2023-11-19T16:55:08;97544.72;;;17.03;52.30
13387;BME280;6763;48.524;9.044;2023-11-19T16:57:42;97575.09;;;17.06;52.35
13387;BME280;6763;48.524;9.044;2023-11-19T17:00:11;97541.28;;;16.84;52.66
13387;BME280;6763;48.524;9.044;2023-11-19T17:02:38;97575.38;;;17.00;52.53
13387;BME280;6763;48.524;9.044;2023-11-19T17:05:07;97568.34;;;16.83;52.87
13387;BME280;6763;48.524;9.044;2023-11-19T17:07:33;97570.66;;;16.70;52.68
13387;BME280;6763;48.524;9.044;2023-11-19T17:09:58;97569.69;;;16.54;52.92
13387;BME280;6763;48.524;9.044;2023-11-19T17:12:23;97568.06;;;16.32;53.60
13387;BME280;6763;48.524;9.044;2023-11-19T17:14:49;97577.44;;;16.17;53.69
13387;BME280;6763;48.524;9.044;2023-11-19T17:17:14;97579.03;;;16.01;53.82
13387;BME280;6763;48.524;9.044;2023-11-19T17:19:39;97583.88;;;15.90;54.78
13387;BME280;6763;48.524;9.044;2023-11-19T17:22:06;97591.06;;;15.85;54.92
13387;BME280;6763;48.524;9.044;2023-11-19T17:24:32;97571.78;;;15.67;55.32
13387;BME280;6763;48.524;9.044;2023-11-19T17:26:57;97588.44;;;15.65;55.41
13387;BME280;6763;48.524;9.044;2023-11-19T17:29:22;97596.53;;;15.59;55.38
13387;BME280;6763;48.524;9.044;2023-11-19T17:31:48;97599.56;;;15.48;55.42
13387;BME280;6763;48.524;9.044;2023-11-19T17:34:14;97593.78;;;15.40;55.64
13387;BME280;6763;48.524;9.044;2023-11-19T17:36:39;97583.31;;;15.20;55.74
13387;BME280;6763;48.524;9.044;2023-11-19T17:39:04;97585.50;;;15.09;55.92
13387;BME280;6763;48.524;9.044;2023-11-19T17:41:30;97596.22;;;15.01;56.35
13387;BME280;6763;48.524;9.044;2023-11-19T17:43:56;97600.91;;;14.93;56.38
13387;BME280;6763;48.524;9.044;2023-11-19T17:46:21;97599.75;;;14.78;56.47
13387;BME280;6763;48.524;9.044;2023-11-19T17:48:46;97612.13;;;14.72;56.97
13387;BME280;6763;48.524;9.044;2023-11-19T17:51:12;97612.44;;;14.64;56.88
13387;BME280;6763;48.524;9.044;2023-11-19T17:53:38;97592.06;;;14.52;57.31
13387;BME280;6763;48.524;9.044;2023-11-19T17:56:04;97615.34;;;14.55;57.74
13387;BME280;6763;48.524;9.044;2023-11-19T17:58:29;97617.97;;;14.55;57.86
13387;BME280;6763;48.524;9.044;2023-11-19T18:00:58;97626.03;;;14.49;58.13
13387;BME280;6763;48.524;9.044;2023-11-19T18:03:23;97615.03;;;14.41;58.33
13387;BME280;6763;48.524;9.044;2023-11-19T18:05:49;97626.03;;;14.49;58.38
13387;BME280;6763;48.524;9.044;2023-11-19T18:08:15;97625.22;;;14.47;58.02
13387;BME280;6763;48.524;9.044;2023-11-19T18:10:45;97616.97;;;14.36;58.09
13387;BME280;6763;48.524;9.044;2023-11-19T18:13:12;97624.94;;;14.30;58.63
13387;BME280;6763;48.524;9.044;2023-11-19T18:15:37;97614.97;;;14.18;59.03
13387;BME280;6763;48.524;9.044;2023-11-19T18:18:03;97618.56;;;14.14;58.69
13387;BME280;6763;48.524;9.044;2023-11-19T18:20:28;97609.41;;;14.04;58.64
13387;BME280;6763;48.524;9.044;2023-11-19T18:22:53;97626.72;;;14.05;59.20
13387;BME280;6763;48.524;9.044;2023-11-19T18:25:20;97620.72;;;14.03;59.65
13387;BME280;6763;48.524;9.044;2023-11-19T18:27:46;97573.47;;;13.65;59.27
13387;BME280;6763;48.524;9.044;2023-11-19T18:30:21;97626.31;;;13.92;59.24
13387;BME280;6763;48.524;9.044;2023-11-19T18:32:46;97643.66;;;13.92;60.09
13387;BME280;6763;48.524;9.044;2023-11-19T18:35:12;97638.53;;;13.90;59.74
13387;BME280;6763;48.524;9.044;2023-11-19T18:37:45;97636.91;;;13.86;59.48
13387;BME280;6763;48.524;9.044;2023-11-19T18:40:11;97629.38;;;13.79;59.11
13387;BME280;6763;48.524;9.044;2023-11-19T18:42:39;97643.13;;;13.82;59.92
13387;BME280;6763;48.524;9.044;2023-11-19T18:45:06;97643.84;;;13.86;59.87
13387;BME280;6763;48.524;9.044;2023-11-19T18:47:32;97637.59;;;13.91;59.84
13387;BME280;6763;48.524;9.044;2023-11-19T18:49:58;97648.09;;;13.88;59.91
13387;BME280;6763;48.524;9.044;2023-11-19T18:52:24;97632.03;;;13.77;59.88
13387;BME280;6763;48.524;9.044;2023-11-19T18:54:49;97636.41;;;13.75;59.60
13387;BME280;6763;48.524;9.044;2023-11-19T18:57:15;97636.28;;;13.80;60.00
13387;BME280;6763;48.524;9.044;2023-11-19T18:59:40;97652.44;;;13.88;60.24
13387;BME280;6763;48.524;9.044;2023-11-19T19:02:05;97643.00;;;13.85;60.40
13387;BME280;6763;48.524;9.044;2023-11-19T19:04:31;97636.53;;;13.72;60.13
13387;BME280;6763;48.524;9.044;2023-11-19T19:06:57;97644.19;;;13.77;59.66
13387;BME280;6763;48.524;9.044;2023-11-19T19:09:26;97647.78;;;13.73;60.06
13387;BME280;6763;48.524;9.044;2023-11-19T19:11:51;97643.84;;;13.61;60.54
13387;BME280;6763;48.524;9.044;2023-11-19T19:14:17;97642.63;;;13.45;59.86
13387;BME280;6763;48.524;9.044;2023-11-19T19:16:42;97649.56;;;13.44;60.24
13387;BME280;6763;48.524;9.044;2023-11-19T19:19:08;97651.56;;;13.36;60.18
13387;BME280;6763;48.524;9.044;2023-11-19T19:21:34;97645.75;;;13.28;60.03
13387;BME280;6763;48.524;9.044;2023-11-19T19:23:59;97630.47;;;13.19;60.39
13387;BME280;6763;48.524;9.044;2023-11-19T19:26:28;97626.38;;;13.12;60.27
13387;BME280;6763;48.524;9.044;2023-11-19T19:28:55;97627.34;;;13.08;61.03
13387;BME280;6763;48.524;9.044;2023-11-19T19:31:20;97627.19;;;13.13;61.36
13387;BME280;6763;48.524;9.044;2023-11-19T19:33:45;97633.22;;;13.15;61.32
13387;BME280;6763;48.524;9.044;2023-11-19T19:36:14;97634.25;;;13.09;61.00
13387;BME280;6763;48.524;9.044;2023-11-19T19:38:39;97643.78;;;13.09;60.85
13387;BME280;6763;48.524;9.044;2023-11-19T19:41:04;97644.16;;;12.95;61.92
13387;BME280;6763;48.524;9.044;2023-11-19T19:43:30;97626.38;;;12.83;62.12
13387;BME280;6763;48.524;9.044;2023-11-19T19:45:56;97660.63;;;12.95;62.55
13387;BME280;6763;48.524;9.044;2023-11-19T19:48:21;97661.41;;;12.97;62.56
13387;BME280;6763;48.524;9.044;2023-11-19T19:50:46;97645.03;;;12.95;62.91
13387;BME280;6763;48.524;9.044;2023-11-19T19:53:12;97668.81;;;13.11;62.69
13387;BME280;6763;48.524;9.044;2023-11-19T19:55:37;97665.38;;;13.11;62.62
13387;BME280;6763;48.524;9.044;2023-11-19T19:58:02;97669.53;;;13.16;62.74
13387;BME280;6763;48.524;9.044;2023-11-19T20:00:30;97664.72;;;13.02;62.04
13387;BME280;6763;48.524;9.044;2023-11-19T20:02:55;97669.78;;;13.09;62.21
13387;BME280;6763;48.524;9.044;2023-11-19T20:05:21;97660.38;;;13.03;61.93
13387;BME280;6763;48.524;9.044;2023-11-19T20:07:46;97671.50;;;13.10;62.42
13387;BME280;6763;48.524;9.044;2023-11-19T20:10:13;97683.38;;;13.17;62.56
13387;BME280;6763;48.524;9.044;2023-11-19T20:12:40;97673.00;;;13.17;62.42
13387;BME280;6763;48.524;9.044;2023-11-19T20:15:07;97662.59;;;13.17;62.71
13387;BME280;6763;48.524;9.044;2023-11-19T20:17:33;97659.94;;;13.18;62.52
13387;BME280;6763;48.524;9.044;2023-11-19T20:19:59;97660.47;;;13.29;63.23
13387;BME280;6763;48.524;9.044;2023-11-19T20:22:25;97639.50;;;13.34;63.27
13387;BME280;6763;48.524;9.044;2023-11-19T20:24:50;97636.47;;;13.47;63.44
13387;BME280;6763;48.524;9.044;2023-11-19T20:27:16;97644.22;;;13.75;62.91
13387;BME280;6763;48.524;9.044;2023-11-19T20:29:45;97647.25;;;13.88;62.09
13387;BME280;6763;48.524;9.044;2023-11-19T20:32:11;97649.66;;;13.94;61.89
13387;BME280;6763;48.524;9.044;2023-11-19T20:34:37;97673.09;;;14.18;61.62
13387;BME280;6763;48.524;9.044;2023-11-19T20:37:02;97644.50;;;14.17;61.38
13387;BME280;6763;48.524;9.044;2023-11-19T20:39:28;97656.19;;;14.32;60.83
13387;BME280;6763;48.524;9.044;2023-11-19T20:41:54;97651.28;;;14.47;60.72
13387;BME280;6763;48.524;9.044;2023-11-19T20:44:19;97661.75;;;14.69;60.15
13387;BME280;6763;48.524;9.044;2023-11-19T20:46:45;97667.22;;;14.84;59.30
13387;BME280;6763;48.524;9.044;2023-11-19T20:49:11;97656.22;;;15.00;58.83
13387;BME280;6763;48.524;9.044;2023-11-19T20:51:36;97661.53;;;15.20;58.13
13387;BME280;6763;48.524;9.044;2023-11-19T20:54:02;97665.84;;;15.21;58.10
13387;BME280;6763;48.524;9.044;2023-11-19T20:56:27;97661.66;;;15.17;57.76
13387;BME280;6763;48.524;9.044;2023-11-19T20:58:53;97672.75;;;15.22;57.50
13387;BME280;6763;48.524;9.044;2023-11-19T21:01:19;97673.41;;;15.27;57.44
13387;BME280;6763;48.524;9.044;2023-11-19T21:03:45;97661.41;;;15.23;57.51
13387;BME280;6763;48.524;9.044;2023-11-19T21:06:10;97668.91;;;15.30;57.20
13387;BME280;6763;48.524;9.044;2023-11-19T21:08:35;97664.66;;;15.28;57.39
13387;BME280;6763;48.524;9.044;2023-11-19T21:11:01;97662.69;;;15.34;57.22
13387;BME280;6763;48.524;9.044;2023-11-19T21:13:27;97659.97;;;15.37;56.83
13387;BME280;6763;48.524;9.044;2023-11-19T21:15:53;97664.84;;;15.46;56.74
13387;BME280;6763;48.524;9.044;2023-11-19T21:18:19;97670.66;;;15.53;56.61
13387;BME280;6763;48.524;9.044;2023-11-19T21:20:44;97676.75;;;15.54;56.49
13387;BME280;6763;48.524;9.044;2023-11-19T21:23:10;97674.59;;;15.63;56.72
13387;BME280;6763;48.524;9.044;2023-11-19T21:25:35;97664.91;;;15.67;56.64
13387;BME280;6763;48.524;9.044;2023-11-19T21:28:01;97642.69;;;15.57;56.69
13387;BME280;6763;48.524;9.044;2023-11-19T21:30:27;97669.81;;;15.74;56.57
13387;BME280;6763;48.524;9.044;2023-11-19T21:32:53;97652.31;;;15.76;56.34
13387;BME280;6763;48.524;9.044;2023-11-19T21:35:18;97660.16;;;15.76;56.50
13387;BME280;6763;48.524;9.044;2023-11-19T21:37:44;97676.69;;;15.75;56.41
13387;BME280;6763;48.524;9.044;2023-11-19T21:40:10;97676.66;;;15.77;56.41
13387;BME280;6763;48.524;9.044;2023-11-19T21:42:36;97675.25;;;15.68;56.51
13387;BME280;6763;48.524;9.044;2023-11-19T21:45:02;97678.88;;;15.64;56.69
13387;BME280;6763;48.524;9.044;2023-11-19T21:47:28;97679.63;;;15.68;56.90
13387;BME280;6763;48.524;9.044;2023-11-19T21:49:53;97662.53;;;15.61;56.52
13387;BME280;6763;48.524;9.044;2023-11-19T21:52:18;97664.91;;;15.67;56.63
13387;BME280;6763;48.524;9.044;2023-11-19T21:54:44;97670.47;;;15.79;56.35
13387;BME280;6763;48.524;9.044;2023-11-19T21:57:09;97678.13;;;15.82;56.27
13387;BME280;6763;48.524;9.044;2023-11-19T21:59:35;97677.31;;;15.82;55.96
13387;BME280;6763;48.524;9.044;2023-11-19T22:02:00;97670.50;;;15.78;56.15
13387;BME280;6763;48.524;9.044;2023-11-19T22:04:25;97674.88;;;15.77;56.10
13387;BME280;6763;48.524;9.044;2023-11-19T22:06:52;97682.91;;;15.73;56.09
13387;BME280;6763;48.524;9.044;2023-11-19T22:09:18;97694.31;;;15.70;56.11
13387;BME280;6763;48.524;9.044;2023-11-19T22:11:43;97703.00;;;15.71;56.30
13387;BME280;6763;48.524;9.044;2023-11-19T22:14:09;97698.56;;;15.73;56.21
13387;BME280;6763;48.524;9.044;2023-11-19T22:16:34;97691.78;;;15.69;56.21
13387;BME280;6763;48.524;9.044;2023-11-19T22:18:59;97682.44;;;15.63;55.97
13387;BME280;6763;48.524;9.044;2023-11-19T22:21:25;97692.78;;;15.65;56.34
13387;BME280;6763;48.524;9.044;2023-11-19T22:23:52;97680.13;;;15.56;56.37
13387;BME280;6763;48.524;9.044;2023-11-19T22:26:18;97696.13;;;15.68;56.04
13387;BME280;6763;48.524;9.044;2023-11-19T22:28:43;97702.25;;;15.67;56.17
13387;BME280;6763;48.524;9.044;2023-11-19T22:31:08;97691.81;;;15.67;56.10
13387;BME280;6763;48.524;9.044;2023-11-19T22:33:34;97679.16;;;15.58;56.29
13387;BME280;6763;48.524;9.044;2023-11-19T22:35:59;97680.56;;;15.67;55.84
13387;BME280;6763;48.524;9.044;2023-11-19T22:38:25;97694.50;;;15.66;56.01
13387;BME280;6763;48.524;9.044;2023-11-19T22:40:51;97693.66;;;15.65;56.19
13387;BME280;6763;48.524;9.044;2023-11-19T22:43:18;97692.00;;;15.63;56.09
13387;BME280;6763;48.524;9.044;2023-11-19T22:45:43;97696.34;;;15.64;56.41
13387;BME280;6763;48.524;9.044;2023-11-19T22:48:08;97680.00;;;15.59;56.28
13387;BME280;6763;48.524;9.044;2023-11-19T22:50:34;97678.19;;;15.61;56.38
13387;BME280;6763;48.524;9.044;2023-11-19T22:52:59;97690.31;;;15.62;56.10
13387;BME280;6763;48.524;9.044;2023-11-19T22:55:25;97702.44;;;15.63;56.40
13387;BME280;6763;48.524;9.044;2023-11-19T22:57:51;97692.91;;;15.62;56.24
13387;BME280;6763;48.524;9.044;2023-11-19T23:00:16;97693.88;;;15.59;56.21
13387;BME280;6763;48.524;9.044;2023-11-19T23:02:54;97694.81;;;15.58;56.45
13387;BME280;6763;48.524;9.044;2023-11-19T23:05:20;97693.19;;;15.56;56.31
13387;BME280;6763;48.524;9.044;2023-11-19T23:07:46;97688.84;;;15.55;56.21
13387;BME280;6763;48.524;9.044;2023-11-19T23:10:12;97696.81;;;15.51;56.38
13387;BME280;6763;48.524;9.044;2023-11-19T23:12:37;97688.25;;;15.48;56.69
13387;BME280;6763;48.524;9.044;2023-11-19T23:15:03;97693.28;;;15.52;56.33
13387;BME280;6763;48.524;9.044;2023-11-19T23:17:32;97671.25;;;15.38;56.75
13387;BME280;6763;48.524;9.044;2023-11-19T23:19:59;97696.13;;;15.46;56.79
13387;BME280;6763;48.524;9.044;2023-11-19T23:22:24;97691.16;;;15.40;56.87
13387;BME280;6763;48.524;9.044;2023-11-19T23:24:49;97693.78;;;15.39;56.69
13387;BME280;6763;48.524;9.044;2023-11-19T23:27:15;97687.69;;;15.40;56.89
13387;BME280;6763;48.524;9.044;2023-11-19T23:29:44;97700.66;;;15.41;56.80
13387;BME280;6763;48.524;9.044;2023-11-19T23:32:09;97692.34;;;15.32;56.99
13387;BME280;6763;48.524;9.044;2023-11-19T23:34:34;97693.00;;;15.37;57.27
13387;BME280;6763;48.524;9.044;2023-11-19T23:37:01;97698.97;;;15.40;57.22
13387;BME280;6763;48.524;9.044;2023-11-19T23:39:27;97687.59;;;15.41;57.20
13387;BME280;6763;48.524;9.044;2023-11-19T23:41:53;97693.69;;;15.42;57.05
13387;BME280;6763;48.524;9.044;2023-11-19T23:44:18;97679.97;;;15.37;57.29
13387;BME280;6763;48.524;9.044;2023-11-19T23:46:44;97699.19;;;15.34;57.28
13387;BME280;6763;48.524;9.044;2023-11-19T23:49:09;97703.94;;;15.25;57.61
13387;BME280;6763;48.524;9.044;2023-11-19T23:51:38;97686.78;;;15.18;57.72
13387;BME280;6763;48.524;9.044;2023-11-19T23:54:06;97694.03;;;15.11;57.81
13387;BME280;6763;48.524;9.044;2023-11-19T23:56:32;97685.53;;;15.06;58.20
13387;BME280;6763;48.524;9.044;2023-11-19T23:58:57;97686.53;;;15.02;58.47
